Time;durP1;ratioP1;P1;durP2;ratioP2;P2;SDS_P1;SDS_P2;PMS_P1;PMS_P2;Temp;Humidity;BMP_temperature;BMP_pressure;BME280_temperature;BME280_humidity;BME280_pressure;Samples;Min_cycle;Max_cycle;Signal;HPM_P1;HPM_P2
2023/04/01 00:00:56;;;;;;;11.88;7.80;;;9.70;99.90;;;;;;4984788;28;20541;-57
2023/04/01 00:03:22;;;;;;;13.85;8.05;;;9.70;99.90;;;;;;4973469;28;20414;-56
2023/04/01 00:05:48;;;;;;;14.75;8.50;;;9.70;99.90;;;;;;4973583;28;20031;-53
2023/04/01 00:08:15;;;;;;;12.95;7.45;;;10.20;99.90;;;;;;4961756;28;20042;-56
2023/04/01 00:10:40;;;;;;;10.82;7.22;;;9.70;99.90;;;;;;4985656;28;20062;-58
2023/04/01 00:13:06;;;;;;;11.88;8.13;;;9.60;99.90;;;;;;4955829;28;20050;-57
2023/04/01 00:15:33;;;;;;;12.38;7.40;;;9.60;99.90;;;;;;4957906;28;20579;-55
2023/04/01 00:18:00;;;;;;;13.15;7.65;;;10.00;99.90;;;;;;4979313;28;20498;-55
2023/04/01 00:20:26;;;;;;;13.05;8.38;;;10.20;99.90;;;;;;4972942;28;20030;-50
2023/04/01 00:22:52;;;;;;;14.60;8.77;;;9.60;99.90;;;;;;4973096;28;20039;-52
2023/04/01 00:25:18;;;;;;;11.95;8.02;;;9.70;99.90;;;;;;4979236;28;20118;-53
2023/04/01 00:27:44;;;;;;;14.38;8.75;;;10.10;99.90;;;;;;4978685;28;20141;-54
2023/04/01 00:30:10;;;;;;;15.52;8.65;;;10.10;99.90;;;;;;4972620;28;20050;-56
2023/04/01 00:32:36;;;;;;;14.90;8.68;;;9.80;99.90;;;;;;4972820;28;20046;-54
2023/04/01 00:35:03;;;;;;;15.25;8.40;;;9.70;99.90;;;;;;4983035;28;20045;-56
2023/04/01 00:37:29;;;;;;;11.55;7.30;;;10.10;99.90;;;;;;4972413;28;20085;-57
2023/04/01 00:39:55;;;;;;;13.27;8.82;;;9.90;99.90;;;;;;4973133;28;20113;-56
2023/04/01 00:42:21;;;;;;;14.57;8.48;;;9.50;99.90;;;;;;4978144;28;20042;-52
2023/04/01 00:44:52;;;;;;;14.23;8.73;;;10.20;99.90;;;;;;4965078;28;20045;-54
2023/04/01 00:47:18;;;;;;;15.93;8.63;;;10.00;99.90;;;;;;4955465;28;20046;-56
2023/04/01 00:49:48;;;;;;;15.00;8.57;;;9.80;99.90;;;;;;4983849;28;20046;-53
2023/04/01 00:52:18;;;;;;;13.63;8.30;;;9.80;99.90;;;;;;4972938;28;20482;-53
2023/04/01 00:54:47;;;;;;;16.38;8.88;;;10.20;99.90;;;;;;4981375;28;20398;-57
2023/04/01 00:57:23;;;;;;;13.30;8.95;;;10.20;99.90;;;;;;4972781;28;20039;-55
2023/04/01 00:59:52;;;;;;;17.80;8.65;;;10.10;99.90;;;;;;4979788;28;20038;-56
2023/04/01 01:02:19;;;;;;;15.77;9.32;;;9.70;99.90;;;;;;4973046;28;20039;-52
2023/04/01 01:04:45;;;;;;;15.27;8.85;;;9.90;99.90;;;;;;4979402;28;20038;-53
2023/04/01 01:07:19;;;;;;;18.70;8.90;;;9.50;99.90;;;;;;4972366;28;20043;-55
2023/04/01 01:10:21;;;;;;;16.13;8.75;;;10.30;99.90;;;;;;4984109;28;20054;-56
2023/04/01 01:13:05;;;;;;;14.98;8.40;;;9.50;99.90;;;;;;4980763;28;20129;-54
2023/04/01 01:15:46;;;;;;;16.88;9.18;;;9.70;99.90;;;;;;4985015;28;20042;-51
2023/04/01 01:18:18;;;;;;;15.10;8.55;;;10.20;99.90;;;;;;4976509;28;20042;-54
2023/04/01 01:21:01;;;;;;;15.18;8.20;;;9.40;99.90;;;;;;4981215;28;20031;-53
2023/04/01 01:23:43;;;;;;;17.55;9.07;;;9.40;99.90;;;;;;4972275;28;20042;-56
2023/04/01 01:26:08;;;;;;;18.05;9.35;;;10.00;99.90;;;;;;4976209;28;20097;-56
2023/04/01 01:29:15;;;;;;;19.13;9.20;;;10.10;99.90;;;;;;4954426;28;20039;-52
2023/04/01 01:32:13;;;;;;;16.90;8.80;;;9.50;99.90;;;;;;4970274;28;20057;-54
2023/04/01 01:34:54;;;;;;;15.18;8.88;;;9.50;99.90;;;;;;4960983;28;20654;-55
2023/04/01 01:37:24;;;;;;;15.77;8.25;;;9.50;99.90;;;;;;4978218;28;20133;-55
2023/04/01 01:39:56;;;;;;;16.20;9.52;;;10.30;99.90;;;;;;4984686;28;20035;-51
2023/04/01 01:42:24;;;;;;;18.65;9.45;;;9.70;99.90;;;;;;4977346;28;20034;-56
2023/04/01 01:44:52;;;;;;;19.35;10.98;;;9.60;99.90;;;;;;4986457;28;20501;-53
2023/04/01 01:47:20;;;;;;;19.80;9.32;;;9.50;99.90;;;;;;4979844;28;20047;-53
2023/04/01 01:49:46;;;;;;;15.88;9.70;;;10.00;99.90;;;;;;4985898;28;20158;-53
2023/04/01 01:52:12;;;;;;;17.00;9.48;;;9.50;99.90;;;;;;4979564;28;20548;-56
2023/04/01 01:54:53;;;;;;;17.95;9.40;;;9.70;99.90;;;;;;4968390;28;20050;-55
2023/04/01 01:57:24;;;;;;;19.33;9.70;;;9.50;99.90;;;;;;4976432;28;20042;-54
2023/04/01 01:59:55;;;;;;;18.23;9.48;;;10.10;99.90;;;;;;4965828;28;20129;-49
2023/04/01 02:02:23;;;;;;;17.75;8.75;;;9.50;99.90;;;;;;4957751;28;20039;-53
2023/04/01 02:04:50;;;;;;;23.13;9.88;;;9.80;99.90;;;;;;4975333;28;20504;-50
2023/04/01 02:07:26;;;;;;;19.65;9.75;;;10.00;99.90;;;;;;4975978;28;20055;-49
2023/04/01 02:09:52;;;;;;;22.85;10.05;;;10.30;99.90;;;;;;4963820;28;20128;-50
2023/04/01 02:12:20;;;;;;;20.45;9.82;;;10.10;99.90;;;;;;4976228;28;20034;-53
2023/04/01 02:14:52;;;;;;;23.50;10.27;;;10.00;99.90;;;;;;4975262;28;20039;-51
2023/04/01 02:17:27;;;;;;;18.98;9.73;;;9.60;99.90;;;;;;4975260;28;20035;-53
2023/04/01 02:20:04;;;;;;;21.00;10.18;;;9.70;99.90;;;;;;4978765;28;20031;-51
2023/04/01 02:22:33;;;;;;;20.40;9.45;;;10.00;99.90;;;;;;4983708;28;20054;-51
2023/04/01 02:25:06;;;;;;;24.52;9.60;;;9.60;99.90;;;;;;4975833;28;20066;-54
2023/04/01 02:27:32;;;;;;;19.35;10.07;;;10.00;99.90;;;;;;4981202;28;20035;-52
2023/04/01 02:29:58;;;;;;;22.90;10.30;;;10.10;99.90;;;;;;4976487;28;20050;-51
2023/04/01 02:32:26;;;;;;;19.75;10.10;;;9.50;99.90;;;;;;4981500;28;20358;-52
2023/04/01 02:34:52;;;;;;;21.88;9.90;;;10.10;99.90;;;;;;4975455;28;20061;-48
2023/04/01 02:37:18;;;;;;;21.45;10.52;;;10.10;99.90;;;;;;4973988;28;20047;-52
2023/04/01 02:39:44;;;;;;;22.05;10.57;;;9.70;99.90;;;;;;4974384;28;20109;-49
2023/04/01 02:42:10;;;;;;;23.30;10.27;;;9.80;99.90;;;;;;4960675;28;20042;-49
2023/04/01 02:44:36;;;;;;;24.25;11.07;;;9.70;99.90;;;;;;4984012;28;20047;-53
2023/04/01 02:47:02;;;;;;;24.08;10.55;;;9.70;99.90;;;;;;4981113;28;20034;-48
2023/04/01 02:49:28;;;;;;;28.17;11.02;;;10.10;99.90;;;;;;4975085;28;20037;-50
2023/04/01 02:51:53;;;;;;;23.50;10.82;;;10.20;99.90;;;;;;4979779;28;20038;-51
2023/04/01 02:54:19;;;;;;;25.65;10.13;;;9.60;99.90;;;;;;4975080;28;20035;-53
2023/04/01 02:56:45;;;;;;;28.17;11.10;;;9.70;99.90;;;;;;4976600;28;20043;-52
2023/04/01 02:59:11;;;;;;;28.98;11.70;;;9.90;99.90;;;;;;4975815;28;20043;-49
2023/04/01 03:01:37;;;;;;;25.88;11.93;;;9.40;99.90;;;;;;4974730;28;20477;-49
2023/04/01 03:04:03;;;;;;;29.60;12.23;;;10.20;99.90;;;;;;4974993;28;20045;-51
2023/04/01 03:06:29;;;;;;;39.90;12.38;;;10.00;99.90;;;;;;4977302;28;20293;-55
2023/04/01 03:08:55;;;;;;;31.40;12.25;;;10.40;99.90;;;;;;4982337;28;20046;-55
2023/04/01 03:11:21;;;;;;;31.05;12.45;;;9.60;99.90;;;;;;4993352;28;20039;-53
2023/04/01 03:13:46;;;;;;;35.10;12.88;;;9.60;99.90;;;;;;4981076;28;20126;-54
2023/04/01 03:16:13;;;;;;;34.47;12.88;;;10.20;99.90;;;;;;4975179;28;20050;-52
2023/04/01 03:18:38;;;;;;;37.08;13.48;;;10.00;99.90;;;;;;4963362;28;20050;-49
2023/04/01 03:21:19;;;;;;;39.40;13.35;;;9.50;99.90;;;;;;4974912;28;20034;-54
2023/04/01 03:23:44;;;;;;;35.20;12.82;;;9.70;99.90;;;;;;4992957;28;20045;-50
2023/04/01 03:26:10;;;;;;;44.72;12.52;;;10.20;99.90;;;;;;4993319;28;20120;-56
2023/04/01 03:28:36;;;;;;;40.35;13.48;;;10.30;99.90;;;;;;4982202;28;20046;-52
2023/04/01 03:31:02;;;;;;;41.78;15.45;;;10.20;99.90;;;;;;4975758;28;20050;-53
2023/04/01 03:33:28;;;;;;;45.03;14.05;;;9.80;99.90;;;;;;4962207;28;20047;-49
2023/04/01 03:35:54;;;;;;;52.22;14.10;;;9.70;99.90;;;;;;4974478;28;20141;-55
2023/04/01 03:38:20;;;;;;;39.95;14.75;;;10.20;99.90;;;;;;4973780;28;20089;-52
2023/04/01 03:40:45;;;;;;;44.05;15.07;;;9.70;99.90;;;;;;4958185;28;20039;-54
2023/04/01 03:43:12;;;;;;;49.63;16.02;;;9.70;99.90;;;;;;4979901;28;20030;-54
2023/04/01 03:45:51;;;;;;;44.50;14.85;;;10.00;99.90;;;;;;4974041;28;20039;-54
2023/04/01 03:48:17;;;;;;;40.70;15.20;;;9.90;99.90;;;;;;4974014;28;20073;-56
2023/04/01 03:50:44;;;;;;;54.25;15.95;;;10.00;99.90;;;;;;4968167;28;20046;-51
2023/04/01 03:53:10;;;;;;;52.03;15.85;;;9.50;99.90;;;;;;4959755;28;20047;-54
2023/04/01 03:55:37;;;;;;;44.58;16.25;;;9.50;99.90;;;;;;4973998;28;20470;-57
2023/04/01 03:58:06;;;;;;;48.35;16.33;;;9.70;99.90;;;;;;4978342;28;20177;-54
2023/04/01 04:00:32;;;;;;;55.97;16.48;;;9.80;99.90;;;;;;4973821;28;20081;-56
2023/04/01 04:02:57;;;;;;;51.78;16.25;;;10.00;99.90;;;;;;4959623;28;20042;-56
2023/04/01 04:05:24;;;;;;;46.03;16.30;;;10.20;99.90;;;;;;4982661;28;21409;-54
2023/04/01 04:07:51;;;;;;;57.72;16.50;;;10.10;99.90;;;;;;4974243;28;20046;-54
2023/04/01 04:10:16;;;;;;;47.28;15.85;;;10.20;99.90;;;;;;4975003;28;20069;-51
2023/04/01 04:12:42;;;;;;;49.88;15.85;;;10.40;99.90;;;;;;4977672;28;20043;-52
2023/04/01 04:15:09;;;;;;;54.60;16.75;;;9.50;99.90;;;;;;4983274;28;20125;-54
2023/04/01 04:17:35;;;;;;;46.72;17.00;;;10.20;99.90;;;;;;4977627;28;20094;-54
2023/04/01 04:20:00;;;;;;;54.53;16.90;;;10.40;99.90;;;;;;4973980;28;20462;-51
2023/04/01 04:22:27;;;;;;;54.55;17.05;;;10.10;99.90;;;;;;4991801;28;20085;-53
2023/04/01 04:24:52;;;;;;;46.20;16.15;;;10.30;99.90;;;;;;4984142;28;20046;-54
2023/04/01 04:27:18;;;;;;;51.35;16.25;;;9.70;99.90;;;;;;4973129;28;20038;-55
2023/04/01 04:29:44;;;;;;;52.58;16.10;;;9.70;99.90;;;;;;4973122;28;20045;-54
2023/04/01 04:32:09;;;;;;;58.50;16.85;;;10.00;99.90;;;;;;4978089;28;20066;-51
2023/04/01 04:34:35;;;;;;;52.75;16.35;;;10.30;99.90;;;;;;4984437;28;20790;-57
2023/04/01 04:37:01;;;;;;;57.28;16.27;;;9.80;99.90;;;;;;4973020;28;20102;-51
2023/04/01 04:39:26;;;;;;;53.42;16.67;;;9.90;99.90;;;;;;4983783;28;20035;-52
2023/04/01 04:41:52;;;;;;;52.92;16.77;;;10.20;99.90;;;;;;4972400;28;20499;-53
2023/04/01 04:44:18;;;;;;;56.00;17.35;;;9.90;99.90;;;;;;4983478;28;20477;-55
2023/04/01 04:46:43;;;;;;;62.92;16.67;;;10.10;99.90;;;;;;4961248;28;20152;-56
2023/04/01 04:49:09;;;;;;;56.80;17.65;;;9.80;99.90;;;;;;4972522;28;20030;-56
2023/04/01 04:51:35;;;;;;;63.53;17.20;;;9.80;99.90;;;;;;4978955;28;20050;-55
2023/04/01 04:54:02;;;;;;;44.35;16.65;;;10.50;99.90;;;;;;4972989;28;20081;-57
2023/04/01 04:56:28;;;;;;;66.10;16.13;;;9.80;99.90;;;;;;4978832;28;20046;-54
2023/04/01 04:58:54;;;;;;;51.22;16.27;;;10.40;99.90;;;;;;4984102;28;20442;-56
2023/04/01 05:01:20;;;;;;;53.67;16.05;;;9.60;99.90;;;;;;4972458;28;20042;-53
2023/04/01 05:03:46;;;;;;;60.25;15.20;;;10.20;99.90;;;;;;4973473;28;20045;-51
2023/04/01 05:06:14;;;;;;;49.17;15.18;;;10.50;99.90;;;;;;4976806;28;20026;-51
2023/04/01 05:08:42;;;;;;;56.92;15.45;;;10.00;99.90;;;;;;4982063;28;20475;-54
2023/04/01 05:11:14;;;;;;;46.13;14.98;;;10.40;99.90;;;;;;4972151;28;20047;-54
2023/04/01 05:13:41;;;;;;;47.72;14.55;;;10.20;99.90;;;;;;4982388;28;20046;-54
2023/04/01 05:16:13;;;;;;;42.05;14.02;;;10.30;99.90;;;;;;4958799;28;20081;-53
2023/04/01 05:18:39;;;;;;;49.22;13.88;;;9.80;99.90;;;;;;4971791;28;20035;-52
2023/04/01 05:21:06;;;;;;;41.85;12.95;;;9.70;99.90;;;;;;4973042;28;20035;-54
2023/04/01 05:23:32;;;;;;;37.70;12.68;;;9.60;99.90;;;;;;4983004;28;20062;-55
2023/04/01 05:25:58;;;;;;;38.47;12.70;;;10.10;99.90;;;;;;4975451;28;20050;-50
2023/04/01 05:28:24;;;;;;;38.30;12.88;;;10.20;99.90;;;;;;4971604;28;20051;-54
2023/04/01 05:30:50;;;;;;;50.55;13.60;;;9.90;99.90;;;;;;4975449;28;20042;-52
2023/04/01 05:33:16;;;;;;;50.75;14.27;;;9.90;99.90;;;;;;4982522;28;20046;-52
2023/04/01 05:35:41;;;;;;;36.35;13.13;;;9.70;99.90;;;;;;4974334;28;20042;-53
2023/04/01 05:38:07;;;;;;;55.03;14.27;;;10.50;99.90;;;;;;4971577;28;20039;-51
2023/04/01 05:40:33;;;;;;;41.28;13.52;;;10.30;99.90;;;;;;4972516;28;20039;-54
2023/04/01 05:43:00;;;;;;;40.38;13.50;;;10.40;99.90;;;;;;4971678;28;20067;-53
2023/04/01 05:45:26;;;;;;;41.13;12.45;;;9.80;99.90;;;;;;4974479;28;20053;-55
2023/04/01 05:47:52;;;;;;;45.92;12.35;;;10.10;99.90;;;;;;4971639;28;20085;-53
2023/04/01 05:50:18;;;;;;;30.00;9.88;;;10.30;99.90;;;;;;4974832;28;20043;-51
2023/04/01 05:52:44;;;;;;;29.45;9.60;;;10.50;99.90;;;;;;4971173;28;20043;-54
2023/04/01 05:55:10;;;;;;;20.30;7.45;;;9.90;99.90;;;;;;4974308;28;20118;-57
2023/04/01 05:57:36;;;;;;;18.33;6.45;;;9.60;99.90;;;;;;4981050;28;20169;-55
2023/04/01 06:00:02;;;;;;;16.17;6.10;;;9.60;99.90;;;;;;4973819;28;20047;-53
2023/04/01 06:02:28;;;;;;;16.02;5.90;;;10.00;99.90;;;;;;4971184;28;20085;-51
2023/04/01 06:05:13;;;;;;;15.40;6.03;;;10.50;99.90;;;;;;4972183;28;20118;-55
2023/04/01 06:07:39;;;;;;;14.55;4.78;;;10.20;99.90;;;;;;4976577;28;20474;-54
2023/04/01 06:10:17;;;;;;;13.68;4.50;;;10.00;99.90;;;;;;4971864;28;20066;-50
2023/04/01 06:12:51;;;;;;;11.68;4.65;;;9.90;99.90;;;;;;4976104;28;20046;-54
2023/04/01 06:15:20;;;;;;;12.25;5.05;;;10.00;99.90;;;;;;4979179;28;20042;-54
2023/04/01 06:18:14;;;;;;;11.30;4.68;;;9.70;99.90;;;;;;4971547;28;20505;-56
2023/04/01 06:20:50;;;;;;;12.30;4.40;;;10.60;99.90;;;;;;4971602;28;20031;-51
2023/04/01 06:23:16;;;;;;;13.13;4.93;;;10.50;99.90;;;;;;4980197;28;20039;-53
2023/04/01 06:25:50;;;;;;;15.68;5.75;;;10.40;99.90;;;;;;4971797;28;20042;-52
2023/04/01 06:28:53;;;;;;;14.82;6.03;;;10.00;99.90;;;;;;4971723;28;20062;-54
2023/04/01 06:31:42;;;;;;;23.90;7.45;;;9.80;99.90;;;;;;4975394;28;20486;-55
2023/04/01 06:34:17;;;;;;;24.88;7.78;;;10.20;99.90;;;;;;4977395;28;20054;-52
2023/04/01 06:37:00;;;;;;;23.80;8.38;;;9.80;99.90;;;;;;4993433;28;20050;-55
2023/04/01 06:39:53;;;;;;;29.25;9.02;;;10.70;99.90;;;;;;4961521;28;20490;-53
2023/04/01 06:42:29;;;;;;;22.85;8.63;;;10.20;99.90;;;;;;4980983;28;20114;-53
2023/04/01 06:45:15;;;;;;;24.73;9.00;;;9.90;99.90;;;;;;4974160;28;20043;-52
2023/04/01 06:48:32;;;;;;;27.25;9.32;;;10.70;99.90;;;;;;4975533;28;20470;-53
2023/04/01 06:51:18;;;;;;;21.35;7.70;;;10.60;99.90;;;;;;4968690;28;20052;-57
2023/04/01 06:54:09;;;;;;;19.83;7.63;;;10.70;99.90;;;;;;4982253;28;20456;-51
2023/04/01 06:56:39;;;;;;;24.25;8.38;;;10.90;99.90;;;;;;4975288;28;20054;-54
2023/04/01 06:59:19;;;;;;;21.08;7.72;;;10.90;99.90;;;;;;4975717;28;20068;-51
2023/04/01 07:01:52;;;;;;;25.15;7.55;;;10.10;99.90;;;;;;4983987;28;20043;-54
2023/04/01 07:04:24;;;;;;;18.90;7.55;;;10.20;99.90;;;;;;4984013;28;20038;-51
2023/04/01 07:07:10;;;;;;;18.02;7.05;;;11.00;99.90;;;;;;4991984;28;20038;-51
2023/04/01 07:09:43;;;;;;;19.60;7.82;;;10.20;99.90;;;;;;4988435;28;20108;-49
2023/04/01 07:12:22;;;;;;;21.27;7.05;;;10.80;99.90;;;;;;4988040;28;20038;-49
2023/04/01 07:14:50;;;;;;;16.98;6.70;;;10.80;99.90;;;;;;4984071;28;20046;-50
2023/04/01 07:17:21;;;;;;;19.58;7.50;;;11.00;99.90;;;;;;4988607;28;20050;-49
2023/04/01 07:20:15;;;;;;;22.10;7.10;;;11.00;99.90;;;;;;4986996;28;20105;-50
2023/04/01 07:22:49;;;;;;;17.90;6.25;;;10.20;99.90;;;;;;4990477;28;20065;-48
2023/04/01 07:25:22;;;;;;;16.15;6.22;;;11.00;99.90;;;;;;4983439;28;20070;-52
2023/04/01 07:27:48;;;;;;;17.55;6.28;;;11.10;99.90;;;;;;4986498;28;20077;-51
2023/04/01 07:30:17;;;;;;;15.48;5.80;;;10.40;99.90;;;;;;4988369;28;20081;-51
2023/04/01 07:32:59;;;;;;;15.63;6.18;;;11.20;99.90;;;;;;4990971;28;20137;-48
2023/04/01 07:35:39;;;;;;;16.83;6.50;;;10.40;99.90;;;;;;4987254;28;20481;-50
2023/04/01 07:38:22;;;;;;;13.48;5.38;;;10.70;99.90;;;;;;4986078;28;20046;-50
2023/04/01 07:40:53;;;;;;;16.02;5.65;;;10.70;99.90;;;;;;4985953;28;20065;-53
2023/04/01 07:43:22;;;;;;;14.93;6.30;;;11.30;99.90;;;;;;4989975;28;20173;-51
2023/04/01 07:46:17;;;;;;;14.52;5.45;;;11.50;99.90;;;;;;4986433;28;20072;-51
2023/04/01 07:49:09;;;;;;;15.60;5.55;;;11.50;99.90;;;;;;4983459;28;20442;-51
2023/04/01 07:52:00;;;;;;;14.00;5.72;;;11.00;99.90;;;;;;4961191;28;20050;-54
2023/04/01 07:54:41;;;;;;;11.70;4.95;;;11.20;99.90;;;;;;4985302;28;20136;-51
2023/04/01 07:57:15;;;;;;;13.85;5.38;;;10.80;99.90;;;;;;4990480;28;20121;-51
2023/04/01 07:59:48;;;;;;;13.00;4.60;;;11.70;99.90;;;;;;4985350;28;20162;-51
2023/04/01 08:02:51;;;;;;;12.43;5.18;;;11.50;99.90;;;;;;4967722;28;20045;-50
2023/04/01 08:05:29;;;;;;;13.02;5.85;;;11.70;99.90;;;;;;4984318;28;20134;-52
2023/04/01 08:08:32;;;;;;;12.63;6.53;;;11.20;99.90;;;;;;4983484;28;20494;-50
2023/04/01 08:11:19;;;;;;;15.80;7.03;;;11.70;99.90;;;;;;4982619;28;20054;-49
2023/04/01 08:14:05;;;;;;;14.88;7.43;;;11.20;99.90;;;;;;4985096;28;20046;-49
2023/04/01 08:16:49;;;;;;;12.82;7.40;;;12.00;99.90;;;;;;4959579;28;20437;-48
2023/04/01 08:19:39;;;;;;;13.10;7.40;;;11.70;99.90;;;;;;4967781;28;20048;-49
2023/04/01 08:22:41;;;;;;;11.18;7.00;;;11.90;99.90;;;;;;4985873;28;20061;-49
2023/04/01 08:25:16;;;;;;;11.63;6.32;;;12.00;99.90;;;;;;4972952;28;20051;-50
2023/04/01 08:27:46;;;;;;;9.48;5.28;;;12.00;99.90;;;;;;4976870;28;20042;-52
2023/04/01 08:30:19;;;;;;;8.93;5.22;;;12.20;99.90;;;;;;4962621;28;20129;-49
2023/04/01 08:33:10;;;;;;;6.80;4.10;;;12.20;99.90;;;;;;4954949;28;20042;-48
2023/04/01 08:35:51;;;;;;;6.40;3.53;;;12.40;99.90;;;;;;4979132;28;20057;-49
2023/04/01 08:38:32;;;;;;;5.78;3.47;;;11.50;99.90;;;;;;4971145;28;20130;-50
2023/04/01 08:41:18;;;;;;;4.90;2.70;;;12.00;99.90;;;;;;4971842;28;20035;-50
2023/04/01 08:44:21;;;;;;;6.20;3.72;;;11.50;99.90;;;;;;4978004;28;20035;-49
2023/04/01 08:47:28;;;;;;;5.00;3.00;;;11.80;99.90;;;;;;4974162;28;20081;-50
2023/04/01 08:50:16;;;;;;;4.35;2.70;;;11.90;99.90;;;;;;4949373;28;20534;-53
2023/04/01 08:53:06;;;;;;;4.80;2.65;;;11.70;99.90;;;;;;4975073;28;20260;-49
2023/04/01 08:55:58;;;;;;;4.60;2.88;;;11.60;99.90;;;;;;4963638;28;20057;-50
2023/04/01 08:58:51;;;;;;;5.70;3.30;;;12.20;99.90;;;;;;4972179;28;20043;-53
2023/04/01 09:01:42;;;;;;;6.97;4.22;;;12.30;99.90;;;;;;4956409;28;20039;-51
2023/04/01 09:04:24;;;;;;;6.55;4.68;;;11.60;99.90;;;;;;4971561;28;20035;-50
2023/04/01 09:06:59;;;;;;;6.53;4.20;;;12.30;99.90;;;;;;4977577;28;20035;-51
2023/04/01 09:09:30;;;;;;;7.25;4.65;;;12.10;99.90;;;;;;4982906;28;20066;-52
2023/04/01 09:12:26;;;;;;;8.35;5.18;;;12.10;99.90;;;;;;4975259;28;20086;-50
2023/04/01 09:15:19;;;;;;;9.63;6.18;;;11.40;99.90;;;;;;4977139;28;20039;-51
2023/04/01 09:17:57;;;;;;;9.68;6.25;;;12.10;99.90;;;;;;4972548;28;20047;-50
2023/04/01 09:20:47;;;;;;;10.30;6.53;;;11.40;99.90;;;;;;4972798;28;20364;-49
2023/04/01 09:23:13;;;;;;;10.55;6.85;;;11.40;99.90;;;;;;4976272;28;20121;-52
2023/04/01 09:26:04;;;;;;;11.45;7.53;;;12.10;99.90;;;;;;4971844;28;20122;-51
2023/04/01 09:28:38;;;;;;;10.63;8.55;;;12.20;99.90;;;;;;4972296;28;20050;-51
2023/04/01 09:31:18;;;;;;;12.50;6.20;;;11.70;99.90;;;;;;4955242;28;20055;-51
2023/04/01 09:34:20;;;;;;;10.68;6.80;;;11.70;99.90;;;;;;4981080;28;20550;-50
2023/04/01 09:37:18;;;;;;;8.80;6.25;;;12.50;99.90;;;;;;4982404;28;20186;-52
2023/04/01 09:39:50;;;;;;;8.55;5.63;;;11.60;99.90;;;;;;4973535;28;20077;-50
2023/04/01 09:42:41;;;;;;;7.65;4.50;;;12.40;99.90;;;;;;4970856;28;20035;-49
2023/04/01 09:45:37;;;;;;;6.68;4.30;;;11.80;99.90;;;;;;4978396;28;20467;-50
2023/04/01 09:48:15;;;;;;;5.85;3.67;;;11.70;99.90;;;;;;4989068;28;20545;-53
2023/04/01 09:50:56;;;;;;;5.78;3.30;;;12.30;99.90;;;;;;4956066;28;20070;-49
2023/04/01 09:53:36;;;;;;;5.40;2.95;;;11.90;99.90;;;;;;4971796;28;20039;-53
2023/04/01 09:56:35;;;;;;;3.80;1.90;;;11.90;99.90;;;;;;4971727;28;20043;-51
2023/04/01 09:59:38;;;;;;;5.45;2.03;;;12.40;99.90;;;;;;4971471;28;20050;-50
2023/04/01 10:02:36;;;;;;;4.72;2.08;;;11.90;99.90;;;;;;4971312;28;20039;-54
2023/04/01 10:05:39;;;;;;;6.40;2.42;;;12.00;99.90;;;;;;4977630;28;20041;-51
2023/04/01 10:08:43;;;;;;;5.57;2.50;;;12.00;99.90;;;;;;4974891;28;20051;-54
2023/04/01 10:11:15;;;;;;;6.00;2.72;;;12.40;99.90;;;;;;4975882;28;20114;-51
2023/04/01 10:14:18;;;;;;;5.25;3.42;;;11.80;99.90;;;;;;4974638;28;20152;-50
2023/04/01 10:17:00;;;;;;;5.35;3.08;;;12.60;99.90;;;;;;4977631;28;20038;-49
2023/04/01 10:20:03;;;;;;;5.55;3.50;;;12.20;99.90;;;;;;4981079;28;20061;-53
2023/04/01 10:22:42;;;;;;;6.40;4.10;;;12.20;99.90;;;;;;4983107;28;20177;-49
2023/04/01 10:25:27;;;;;;;7.80;5.63;;;12.40;99.90;;;;;;4978989;28;20042;-51
2023/04/01 10:27:55;;;;;;;;;;;12.80;99.90;;;;;;4981028;28;20043;-50
2023/04/01 10:30:45;;;;;;;7.35;5.30;;;12.10;99.90;;;;;;4985629;28;19940;-50
2023/04/01 10:33:25;;;;;;;10.18;6.70;;;12.60;99.90;;;;;;4958755;28;20790;-50
2023/04/01 10:35:57;;;;;;;9.27;6.65;;;12.00;99.90;;;;;;4953834;28;20054;-53
2023/04/01 10:38:43;;;;;;;9.68;6.65;;;12.60;99.90;;;;;;4969653;28;20050;-48
2023/04/01 10:41:48;;;;;;;10.07;7.15;;;12.30;99.90;;;;;;4970616;28;20065;-53
2023/04/01 10:44:40;;;;;;;9.10;6.88;;;12.10;99.90;;;;;;4952102;28;20441;-49
2023/04/01 10:47:43;;;;;;;9.80;7.03;;;12.20;99.90;;;;;;4968681;28;20047;-50
2023/04/01 10:50:35;;;;;;;9.27;6.65;;;12.40;99.90;;;;;;4967825;28;20042;-52
2023/04/01 10:53:43;;;;;;;10.50;7.10;;;12.40;99.90;;;;;;4968814;28;20039;-50
2023/04/01 10:56:48;;;;;;;9.48;7.10;;;12.90;99.90;;;;;;4962543;28;20081;-49
2023/04/01 10:59:43;;;;;;;9.50;7.47;;;13.10;99.90;;;;;;4965966;28;20056;-48
2023/04/01 11:02:14;;;;;;;11.85;7.88;;;12.90;99.90;;;;;;4969973;28;20541;-51
2023/04/01 11:04:43;;;;;;;9.68;8.55;;;12.80;99.90;;;;;;4967244;28;20047;-50
2023/04/01 11:07:30;;;;;;;9.52;7.50;;;13.00;99.90;;;;;;4969660;28;20054;-51
2023/04/01 11:10:38;;;;;;;12.07;9.30;;;13.00;99.90;;;;;;4968540;28;20051;-50
2023/04/01 11:13:41;;;;;;;13.13;8.95;;;13.40;99.90;;;;;;4971177;28;20070;-48
2023/04/01 11:16:19;;;;;;;11.35;8.43;;;13.40;99.90;;;;;;4951216;28;20035;-52
2023/04/01 11:19:04;;;;;;;10.88;9.68;;;13.20;99.90;;;;;;4968029;28;20470;-49
2023/04/01 11:22:06;;;;;;;11.15;8.50;;;13.10;99.90;;;;;;4967127;28;20117;-50
2023/04/01 11:25:08;;;;;;;11.63;10.02;;;13.40;99.90;;;;;;4978602;28;20039;-52
2023/04/01 11:28:05;;;;;;;12.85;9.40;;;13.50;99.90;;;;;;4968907;28;20042;-51
2023/04/01 11:30:58;;;;;;;12.82;10.95;;;13.90;99.90;;;;;;4969346;28;20050;-53
2023/04/01 11:34:02;;;;;;;12.02;9.38;;;13.70;99.90;;;;;;4972634;28;20085;-51
2023/04/01 11:36:49;;;;;;;13.30;11.57;;;13.70;99.90;;;;;;4963544;28;20047;-49
2023/04/01 11:39:36;;;;;;;11.52;9.82;;;13.80;99.90;;;;;;4976083;28;20049;-51
2023/04/01 11:42:25;;;;;;;12.82;10.02;;;13.70;99.90;;;;;;4980526;28;20046;-51
2023/04/01 11:45:16;;;;;;;14.63;11.20;;;13.50;99.90;;;;;;4980366;28;20061;-53
2023/04/01 11:48:17;;;;;;;9.60;7.75;;;13.20;99.90;;;;;;4972794;28;20054;-52
2023/04/01 11:51:04;;;;;;;8.32;6.25;;;12.80;99.90;;;;;;4923223;28;20077;-52
2023/04/01 11:54:08;;;;;;;8.57;6.85;;;12.70;99.90;;;;;;4983693;28;20043;-52
2023/04/01 11:56:55;;;;;;;8.80;6.00;;;12.50;99.90;;;;;;4950481;28;20075;-53
2023/04/01 11:59:44;;;;;;;7.88;6.35;;;12.40;99.90;;;;;;4973484;28;20055;-50
2023/04/01 12:02:23;;;;;;;7.43;5.75;;;12.50;99.90;;;;;;4979239;28;20909;-50
2023/04/01 12:05:21;;;;;;;6.85;5.07;;;12.50;99.90;;;;;;4982979;28;20042;-50
2023/04/01 12:08:08;;;;;;;7.35;6.60;;;12.30;99.90;;;;;;4986933;28;20077;-48
2023/04/01 12:11:09;;;;;;;6.95;5.22;;;12.10;99.90;;;;;;4981701;28;20514;-53
2023/04/01 12:14:04;;;;;;;9.35;6.05;;;12.20;99.90;;;;;;4975200;28;20046;-51
2023/04/01 12:17:03;;;;;;;8.30;6.28;;;11.90;99.90;;;;;;4955076;28;20101;-50
2023/04/01 12:19:56;;;;;;;8.25;6.35;;;11.90;99.90;;;;;;4976753;28;20050;-50
2023/04/01 12:22:40;;;;;;;8.00;6.05;;;11.90;99.90;;;;;;4955492;28;20129;-49
2023/04/01 12:25:37;;;;;;;7.63;5.70;;;11.90;99.90;;;;;;4969606;28;20053;-54
2023/04/01 12:28:37;;;;;;;8.43;6.05;;;11.80;99.90;;;;;;4982905;28;20089;-53
2023/04/01 12:31:06;;;;;;;9.55;5.20;;;11.50;99.90;;;;;;4962665;28;20093;-52
2023/04/01 12:34:15;;;;;;;7.65;5.63;;;11.40;99.90;;;;;;4983730;28;20034;-49
2023/04/01 12:37:06;;;;;;;6.32;5.68;;;11.40;99.90;;;;;;4976657;28;20531;-51
2023/04/01 12:40:09;;;;;;;6.88;4.43;;;11.30;99.90;;;;;;4975025;28;20038;-51
2023/04/01 12:42:35;;;;;;;6.55;4.80;;;11.60;99.90;;;;;;4974224;28;20038;-47
2023/04/01 12:45:33;;;;;;;7.70;4.85;;;11.50;99.90;;;;;;4972592;28;20390;-48
2023/04/01 12:48:35;;;;;;;7.55;4.68;;;11.40;99.90;;;;;;4957893;28;20050;-49
2023/04/01 12:51:27;;;;;;;6.85;4.95;;;11.50;99.90;;;;;;4974726;28;20034;-49
2023/04/01 12:53:56;;;;;;;5.95;4.80;;;11.80;99.90;;;;;;4975405;28;20078;-52
2023/04/01 12:56:40;;;;;;;6.07;4.57;;;11.60;99.90;;;;;;4975371;28;20081;-48
2023/04/01 12:59:32;;;;;;;5.45;3.97;;;11.60;99.90;;;;;;4976074;28;20505;-51
2023/04/01 13:02:13;;;;;;;5.57;4.13;;;11.90;99.90;;;;;;4978153;28;20567;-53
2023/04/01 13:05:19;;;;;;;5.55;4.22;;;11.80;99.90;;;;;;4972714;28;20073;-48
2023/04/01 13:08:02;;;;;;;7.50;5.22;;;11.80;99.90;;;;;;4956750;28;20043;-49
2023/04/01 13:10:52;;;;;;;7.22;4.53;;;11.60;99.90;;;;;;4978080;28;20062;-50
2023/04/01 13:13:24;;;;;;;8.13;4.00;;;12.00;99.90;;;;;;4971834;28;20039;-49
2023/04/01 13:16:15;;;;;;;6.00;4.15;;;11.90;99.90;;;;;;4955185;28;20046;-51
2023/04/01 13:18:55;;;;;;;6.10;4.13;;;11.70;99.90;;;;;;4973961;28;20405;-49
2023/04/01 13:21:29;;;;;;;6.43;4.05;;;11.90;99.90;;;;;;4990419;28;20050;-52
2023/04/01 13:24:24;;;;;;;6.97;4.50;;;11.80;99.90;;;;;;4986907;28;20041;-52
2023/04/01 13:27:08;;;;;;;5.72;4.43;;;11.40;99.90;;;;;;4977195;28;20049;-50
2023/04/01 13:29:39;;;;;;;6.60;4.63;;;11.40;99.90;;;;;;4978848;28;20127;-50
2023/04/01 13:32:24;;;;;;;5.95;4.55;;;11.70;99.90;;;;;;4974697;28;20046;-50
2023/04/01 13:34:59;;;;;;;;;;;11.40;99.90;;;;;;4980993;28;20128;-49